createdAt,value
2019-04-03T00:00:18.267Z,10.23
2019-04-03T00:01:53.791Z,10.53
2019-04-03T00:03:30.288Z,9.97
2019-04-03T00:05:07.590Z,10.00
2019-04-03T00:06:43.478Z,9.65
2019-04-03T00:08:19.011Z,10.80
2019-04-03T00:09:54.546Z,10.40
2019-04-03T00:11:30.444Z,9.63
2019-04-03T00:13:05.970Z,10.70
2019-04-03T00:14:42.935Z,10.35
2019-04-03T00:16:18.803Z,9.67
2019-04-03T00:17:54.642Z,9.87
2019-04-03T00:19:30.842Z,9.40
2019-04-03T00:21:06.364Z,9.53
2019-04-03T00:22:41.896Z,9.20
2019-04-03T00:24:22.150Z,9.68
2019-04-03T00:25:57.583Z,9.63
2019-04-03T00:27:33.114Z,9.90
2019-04-03T00:29:08.674Z,10.32
2019-04-03T00:30:44.248Z,10.45
2019-04-03T00:32:19.765Z,10.23
2019-04-03T00:33:55.289Z,9.83
2019-04-03T00:35:30.914Z,10.43
2019-04-03T00:37:06.481Z,10.13
2019-04-03T00:38:41.969Z,10.30
2019-04-03T00:40:18.564Z,9.35
2019-04-03T00:41:54.621Z,10.40
2019-04-03T00:43:30.950Z,9.50
2019-04-03T00:45:07.832Z,9.00
2019-04-03T00:46:43.680Z,9.35
2019-04-03T00:48:19.296Z,9.03
2019-04-03T00:49:57.003Z,9.73
2019-04-03T00:51:32.048Z,9.07
2019-04-03T00:53:07.650Z,9.55
2019-04-03T00:54:43.282Z,9.58
2019-04-03T00:56:18.767Z,9.58
2019-04-03T00:57:56.077Z,8.73
2019-04-03T00:59:32.904Z,9.50
2019-04-03T01:01:10.477Z,9.33
2019-04-03T01:02:46.071Z,9.78
2019-04-03T01:04:21.585Z,8.87
2019-04-03T01:05:58.348Z,9.77
2019-04-03T01:07:34.420Z,8.97
2019-04-03T01:09:09.955Z,9.93
2019-04-03T01:10:45.492Z,9.45
2019-04-03T01:12:21.071Z,9.50
2019-04-03T01:13:56.694Z,9.60
2019-04-03T01:15:33.033Z,10.43
2019-04-03T01:17:08.977Z,10.40
2019-04-03T01:18:44.478Z,9.68
2019-04-03T01:20:20.055Z,10.10
2019-04-03T01:21:55.616Z,10.37
2019-04-03T01:23:31.152Z,9.60
2019-04-03T01:25:08.772Z,9.43
2019-04-03T01:26:46.388Z,9.80
2019-04-03T01:28:22.879Z,9.80
2019-04-03T01:29:58.698Z,10.07
2019-04-03T01:31:34.218Z,11.60
2019-04-03T01:33:09.757Z,11.60
2019-04-03T01:34:46.986Z,10.63
2019-04-03T01:36:22.665Z,10.03
2019-04-03T01:37:58.202Z,10.60
2019-04-03T01:39:33.992Z,9.30
2019-04-03T01:41:09.518Z,10.27
2019-04-03T01:42:45.058Z,9.70
2019-04-03T01:44:20.565Z,10.53
2019-04-03T01:45:56.886Z,10.13
2019-04-03T01:47:32.748Z,10.37
2019-04-03T01:49:08.279Z,11.27
2019-04-03T01:50:43.813Z,10.30
2019-04-03T01:52:19.388Z,11.10
2019-04-03T01:53:54.916Z,11.30
2019-04-03T01:55:30.589Z,10.57
2019-04-03T01:57:06.928Z,11.53
2019-04-03T01:58:43.496Z,11.73
2019-04-03T02:00:19.476Z,11.35
2019-04-03T02:01:55.075Z,10.33
2019-04-03T02:03:30.605Z,11.20
2019-04-03T02:05:08.926Z,10.53
2019-04-03T02:06:44.430Z,10.82
2019-04-03T02:08:19.957Z,10.15
2019-04-03T02:09:55.548Z,10.27
2019-04-03T02:11:31.103Z,9.20
2019-04-03T02:13:06.631Z,10.47
2019-04-03T02:14:42.175Z,10.43
2019-04-03T02:16:17.699Z,10.38
2019-04-03T02:17:54.919Z,12.28
2019-04-03T02:19:30.467Z,13.43
2019-04-03T02:21:06.000Z,13.87
2019-04-03T02:22:41.979Z,13.17
2019-04-03T02:24:17.457Z,12.25
2019-04-03T02:25:52.997Z,11.60
2019-04-03T02:27:28.516Z,10.73
2019-04-03T02:29:04.866Z,10.07
2019-04-03T02:30:44.784Z,9.70
2019-04-03T02:32:18.520Z,10.45
2019-04-03T02:33:54.052Z,11.15
2019-04-03T02:35:29.592Z,10.33
2019-04-03T02:37:05.106Z,10.67
2019-04-03T02:38:41.057Z,10.67
2019-04-03T02:40:16.759Z,10.63
2019-04-03T02:41:53.281Z,10.60
2019-04-03T02:43:28.818Z,10.57
2019-04-03T02:45:06.745Z,9.63
2019-04-03T02:46:42.282Z,10.50
2019-04-03T02:48:17.801Z,10.93
2019-04-03T02:49:53.400Z,9.90
2019-04-03T02:51:28.589Z,10.43
2019-04-03T02:53:05.758Z,10.20
2019-04-03T02:54:43.014Z,10.43
2019-04-03T02:56:18.550Z,10.03
2019-04-03T02:57:55.237Z,9.90
2019-04-03T02:59:30.903Z,10.23
2019-04-03T03:01:07.958Z,9.10
2019-04-03T03:02:45.125Z,9.78
2019-04-03T03:04:22.294Z,9.93
2019-04-03T03:06:00.678Z,9.93
2019-04-03T03:07:36.368Z,9.27
2019-04-03T03:09:13.640Z,9.33
2019-04-03T03:10:51.733Z,9.83
2019-04-03T03:12:28.848Z,9.93
2019-04-03T03:14:07.533Z,9.70
2019-04-03T03:15:43.854Z,10.07
2019-04-03T03:17:22.535Z,9.63
2019-04-03T03:19:00.876Z,10.53
2019-04-03T03:20:39.190Z,10.17
2019-04-03T03:22:16.917Z,9.87
2019-04-03T03:23:50.441Z,10.82
2019-04-03T03:25:26.574Z,9.83
2019-04-03T03:27:02.862Z,10.27
2019-04-03T03:28:40.086Z,9.50
2019-04-03T03:30:41.905Z,10.72
2019-04-03T03:32:08.833Z,9.95
2019-04-03T03:33:37.530Z,11.30
2019-04-03T03:35:15.147Z,11.00
2019-04-03T03:36:48.862Z,10.03
2019-04-03T03:38:28.064Z,11.30
2019-04-03T03:40:04.616Z,9.93
2019-04-03T03:41:40.865Z,10.20
2019-04-03T03:43:17.755Z,10.30
2019-04-03T03:44:54.872Z,9.95
2019-04-03T03:46:30.620Z,9.40
2019-04-03T03:48:09.346Z,10.32
2019-04-03T03:49:44.694Z,9.67
2019-04-03T03:51:22.780Z,10.03
2019-04-03T03:52:59.805Z,9.15
2019-04-03T03:54:35.576Z,9.87
2019-04-03T03:56:11.407Z,9.53
2019-04-03T03:57:47.167Z,9.50
2019-04-03T03:59:23.093Z,9.65
2019-04-03T04:01:00.511Z,9.93
2019-04-03T04:02:37.884Z,9.67
2019-04-03T04:04:15.432Z,9.37
2019-04-03T04:05:53.845Z,10.03
2019-04-03T04:07:30.194Z,8.80
2019-04-03T04:09:08.387Z,8.90
2019-04-03T04:10:44.763Z,8.97
2019-04-03T04:12:21.055Z,8.93
2019-04-03T04:13:56.740Z,9.03
2019-04-03T04:15:32.446Z,9.33
2019-04-03T04:17:12.310Z,9.20
2019-04-03T04:18:45.685Z,9.47
2019-04-03T04:20:21.197Z,9.55
2019-04-03T04:21:56.451Z,10.00
2019-04-03T04:23:32.336Z,9.53
2019-04-03T04:25:07.993Z,9.30
2019-04-03T04:26:43.588Z,9.87
2019-04-03T04:28:18.957Z,9.73
2019-04-03T04:29:55.957Z,9.50
2019-04-03T04:31:31.544Z,9.20
2019-04-03T04:33:07.092Z,9.20
2019-04-03T04:34:43.167Z,8.68
2019-04-03T04:36:18.684Z,9.40
2019-04-03T04:37:55.985Z,9.05
2019-04-03T04:39:33.369Z,8.43
2019-04-03T04:41:08.887Z,8.63
2019-04-03T04:42:44.704Z,9.00
2019-04-03T04:44:20.247Z,9.03
2019-04-03T04:45:55.765Z,8.67
2019-04-03T04:47:32.263Z,9.17
2019-04-03T04:49:08.093Z,9.57
2019-04-03T04:50:44.187Z,9.47
2019-04-03T04:52:19.719Z,9.53
2019-04-03T04:53:55.272Z,10.58
2019-04-03T04:55:31.549Z,9.05
2019-04-03T04:57:08.896Z,9.97
2019-04-03T04:58:44.936Z,9.60
2019-04-03T05:00:21.079Z,9.73
2019-04-03T05:01:58.455Z,9.10
2019-04-03T05:03:34.333Z,9.37
2019-04-03T05:05:09.696Z,9.70
2019-04-03T05:06:45.055Z,9.60
2019-04-03T05:08:20.770Z,9.70
2019-04-03T05:09:56.292Z,8.60
2019-04-03T05:11:31.827Z,9.38
2019-04-03T05:13:07.343Z,9.40
2019-04-03T05:14:42.866Z,9.30
2019-04-03T05:16:20.205Z,8.70
2019-04-03T05:17:57.704Z,9.03
2019-04-03T05:19:34.246Z,9.13
2019-04-03T05:21:09.960Z,9.10
2019-04-03T05:22:45.845Z,8.90
2019-04-03T05:24:21.394Z,9.40
2019-04-03T05:25:56.924Z,9.85
2019-04-03T05:27:34.461Z,9.48
2019-04-03T05:29:09.685Z,8.93
2019-04-03T05:30:46.020Z,9.18
2019-04-03T05:32:21.194Z,9.60
2019-04-03T05:33:56.644Z,9.07
2019-04-03T05:35:31.812Z,9.60
2019-04-03T05:37:07.283Z,9.70
2019-04-03T05:38:42.943Z,10.33
2019-04-03T05:40:18.506Z,11.80
2019-04-03T05:41:53.683Z,11.55
2019-04-03T05:43:30.724Z,11.83
2019-04-03T05:45:06.877Z,10.87
2019-04-03T05:46:43.324Z,10.77
2019-04-03T05:48:18.675Z,10.30
2019-04-03T05:49:56.120Z,10.17
2019-04-03T05:51:31.425Z,9.47
2019-04-03T05:53:07.051Z,11.37
2019-04-03T05:54:44.353Z,11.33
2019-04-03T05:56:19.984Z,11.80
2019-04-03T05:57:55.514Z,11.57
2019-04-03T05:59:33.682Z,10.23
2019-04-03T06:01:10.817Z,10.20
2019-04-03T06:02:44.736Z,10.40
2019-04-03T06:04:20.452Z,11.20
2019-04-03T06:05:58.051Z,9.97
2019-04-03T06:07:33.589Z,10.50
2019-04-03T06:09:09.315Z,10.47
2019-04-03T06:10:44.548Z,11.03
2019-04-03T06:12:20.009Z,10.50
2019-04-03T06:13:55.189Z,10.32
2019-04-03T06:15:30.498Z,10.67
2019-04-03T06:17:06.557Z,10.70
2019-04-03T06:18:42.036Z,11.00
2019-04-03T06:20:17.335Z,10.87
2019-04-03T06:21:52.728Z,11.43
2019-04-03T06:23:28.466Z,12.37
2019-04-03T06:25:05.228Z,11.75
2019-04-03T06:26:43.852Z,11.20
2019-04-03T06:28:18.038Z,11.77
2019-04-03T06:29:55.037Z,11.17
2019-04-03T06:31:30.974Z,11.00
2019-04-03T06:33:06.510Z,12.53
2019-04-03T06:34:43.557Z,10.50
2019-04-03T06:36:19.486Z,11.73
2019-04-03T06:37:54.741Z,11.20
2019-04-03T06:39:31.596Z,10.65
2019-04-03T06:41:08.985Z,10.33
2019-04-03T06:42:44.930Z,11.70
2019-04-03T06:44:22.616Z,11.43
2019-04-03T06:45:58.867Z,11.50
2019-04-03T06:47:35.759Z,10.70
2019-04-03T06:49:11.595Z,11.30
2019-04-03T06:50:46.939Z,11.33
2019-04-03T06:52:23.139Z,11.17
2019-04-03T06:53:59.585Z,10.50
2019-04-03T06:55:36.471Z,10.20
2019-04-03T06:57:13.854Z,10.10
2019-04-03T06:58:49.462Z,9.90
2019-04-03T07:00:24.875Z,11.60
2019-04-03T07:02:00.410Z,12.07
2019-04-03T07:03:35.787Z,11.80
2019-04-03T07:05:11.088Z,10.83
2019-04-03T07:06:46.608Z,10.80
2019-04-03T07:08:30.021Z,11.50
2019-04-03T07:09:59.000Z,11.18
2019-04-03T07:11:34.461Z,10.73
2019-04-03T07:13:09.648Z,11.18
2019-04-03T07:14:45.089Z,11.08
2019-04-03T07:16:20.609Z,11.00
2019-04-03T07:17:55.801Z,12.47
2019-04-03T07:19:31.278Z,11.60
2019-04-03T07:21:06.807Z,11.65
2019-04-03T07:22:42.057Z,11.43
2019-04-03T07:24:17.091Z,10.53
2019-04-03T07:25:53.517Z,11.28
2019-04-03T07:27:30.423Z,11.38
2019-04-03T07:29:06.930Z,10.58
2019-04-03T07:30:42.473Z,10.82
2019-04-03T07:32:17.578Z,11.68
2019-04-03T07:33:53.642Z,10.58
2019-04-03T07:35:29.335Z,11.35
2019-04-03T07:37:04.828Z,10.75
2019-04-03T07:38:41.116Z,10.80
2019-04-03T07:40:16.959Z,10.80
2019-04-03T07:41:54.826Z,11.05
2019-04-03T07:43:30.388Z,11.43
2019-04-03T07:45:09.061Z,10.35
2019-04-03T07:46:44.617Z,10.55
2019-04-03T07:48:20.118Z,11.43
2019-04-03T07:49:55.653Z,11.08
2019-04-03T07:51:31.182Z,11.47
2019-04-03T07:53:06.729Z,11.25
2019-04-03T07:54:42.500Z,10.88
2019-04-03T07:56:18.152Z,11.18
2019-04-03T07:57:54.189Z,11.05
2019-04-03T07:59:29.707Z,12.03
2019-04-03T08:01:05.797Z,12.07
2019-04-03T08:02:46.950Z,11.10
2019-04-03T08:04:18.413Z,12.13
2019-04-03T08:05:56.308Z,11.63
2019-04-03T08:07:32.486Z,12.03
2019-04-03T08:09:10.460Z,11.88
2019-04-03T08:10:46.083Z,11.38
2019-04-03T08:12:22.204Z,10.85
2019-04-03T08:13:57.904Z,11.65
2019-04-03T08:15:33.416Z,11.57
2019-04-03T08:17:08.944Z,10.95
2019-04-03T08:18:44.550Z,11.80
2019-04-03T08:20:20.589Z,11.00
2019-04-03T08:21:57.145Z,11.33
2019-04-03T08:23:32.683Z,12.43
2019-04-03T08:25:11.801Z,11.43
2019-04-03T08:26:47.021Z,10.63
2019-04-03T08:28:26.000Z,11.00
2019-04-03T08:30:00.123Z,10.93
2019-04-03T08:31:35.702Z,11.43
2019-04-03T08:33:17.369Z,11.40
2019-04-03T08:34:48.805Z,12.25
2019-04-03T08:36:26.381Z,11.78
2019-04-03T08:38:01.614Z,11.18
2019-04-03T08:39:37.157Z,10.80
2019-04-03T08:41:12.686Z,10.70
2019-04-03T08:42:48.642Z,10.93
2019-04-03T08:44:24.681Z,11.35
2019-04-03T08:46:00.187Z,10.72
2019-04-03T08:47:37.637Z,10.48
2019-04-03T08:49:12.946Z,10.30
2019-04-03T08:50:48.615Z,9.75
2019-04-03T08:52:24.175Z,10.72
2019-04-03T08:54:00.070Z,10.35
2019-04-03T08:55:35.604Z,10.20
2019-04-03T08:57:11.416Z,10.28
2019-04-03T08:58:47.107Z,9.75
2019-04-03T09:00:22.980Z,10.35
2019-04-03T09:01:58.512Z,10.30
2019-04-03T09:03:34.313Z,9.58
2019-04-03T09:05:09.555Z,9.70
2019-04-03T09:06:44.743Z,10.25
2019-04-03T09:08:20.358Z,10.65
2019-04-03T09:09:55.524Z,9.63
2019-04-03T09:11:31.201Z,10.15
2019-04-03T09:13:16.765Z,10.07
2019-04-03T09:14:44.123Z,9.70
2019-04-03T09:16:19.308Z,9.30
2019-04-03T09:17:54.757Z,9.93
2019-04-03T09:19:30.665Z,9.48
2019-04-03T09:21:06.203Z,9.90
2019-04-03T09:22:41.659Z,9.80
2019-04-03T09:24:17.179Z,9.50
2019-04-03T09:25:52.708Z,9.90
2019-04-03T09:27:29.057Z,9.40
2019-04-03T09:29:04.587Z,9.65
2019-04-03T09:30:40.180Z,9.73
2019-04-03T09:32:15.814Z,9.80
2019-04-03T09:33:50.957Z,10.08
2019-04-03T09:35:26.631Z,9.73
2019-04-03T09:37:02.338Z,9.95
2019-04-03T09:38:40.665Z,10.72
2019-04-03T09:40:17.236Z,9.00
2019-04-03T09:41:52.659Z,8.93
2019-04-03T09:43:29.178Z,9.93
2019-04-03T09:45:06.534Z,8.73
2019-04-03T09:46:44.557Z,9.08
2019-04-03T09:48:19.570Z,9.87
2019-04-03T09:49:55.261Z,9.43
2019-04-03T09:51:30.737Z,9.70
2019-04-03T09:53:06.739Z,10.45
2019-04-03T09:54:42.301Z,10.00
2019-04-03T09:56:17.828Z,10.18
2019-04-03T09:57:53.450Z,9.15
2019-04-03T09:59:29.932Z,9.80
2019-04-03T10:01:07.667Z,10.13
2019-04-03T10:02:44.317Z,10.00
2019-04-03T10:04:20.989Z,9.63
2019-04-03T10:05:58.197Z,10.28
2019-04-03T10:07:36.339Z,9.02
2019-04-03T10:09:12.032Z,11.53
2019-04-03T10:10:48.358Z,10.03
2019-04-03T10:12:23.893Z,10.88
2019-04-03T10:13:59.542Z,10.38
2019-04-03T10:15:35.683Z,9.72
2019-04-03T10:17:11.623Z,10.00
2019-04-03T10:18:47.525Z,9.40
2019-04-03T10:20:23.126Z,10.40
2019-04-03T10:21:58.654Z,10.08
2019-04-03T10:23:34.336Z,10.85
2019-04-03T10:25:10.553Z,10.10
2019-04-03T10:26:45.929Z,9.83
2019-04-03T10:28:21.361Z,10.70
2019-04-03T10:29:57.219Z,10.23
2019-04-03T10:31:32.737Z,10.23
2019-04-03T10:33:07.921Z,9.85
2019-04-03T10:34:43.055Z,10.50
2019-04-03T10:36:18.791Z,10.33
2019-04-03T10:37:54.323Z,10.88
2019-04-03T10:39:30.145Z,10.00
2019-04-03T10:41:05.664Z,10.23
2019-04-03T10:42:41.367Z,11.00
2019-04-03T10:44:18.545Z,10.53
2019-04-03T10:45:54.073Z,9.80
2019-04-03T10:47:40.489Z,9.83
2019-04-03T10:49:06.831Z,10.88
2019-04-03T10:50:42.664Z,11.13
2019-04-03T10:52:17.919Z,11.18
2019-04-03T10:53:53.770Z,10.88
2019-04-03T10:55:29.582Z,11.18
2019-04-03T10:57:05.487Z,11.00
2019-04-03T10:58:43.437Z,10.82
2019-04-03T11:00:18.784Z,10.75
2019-04-03T11:01:53.974Z,10.15
2019-04-03T11:03:29.533Z,10.08
2019-04-03T11:05:08.147Z,10.70
2019-04-03T11:06:43.718Z,10.65
2019-04-03T11:08:19.418Z,10.32
2019-04-03T11:09:55.281Z,10.43
2019-04-03T11:11:31.212Z,10.03
2019-04-03T11:13:06.969Z,10.15
2019-04-03T11:14:42.512Z,10.05
2019-04-03T11:16:18.202Z,10.03
2019-04-03T11:17:53.732Z,10.70
2019-04-03T11:19:29.586Z,10.68
2019-04-03T11:21:05.111Z,11.10
2019-04-03T11:24:19.161Z,10.03
2019-04-03T11:25:54.697Z,10.68
2019-04-03T11:27:42.527Z,11.05
2019-04-03T11:29:09.959Z,10.87
2019-04-03T11:30:45.383Z,10.53
2019-04-03T11:30:55.119Z,10.82
2019-04-03T11:32:23.138Z,11.63
2019-04-03T11:33:58.368Z,10.95
2019-04-03T11:35:34.935Z,11.54
2019-04-03T11:37:10.774Z,10.00
2019-04-03T11:38:46.381Z,11.30
2019-04-03T11:40:24.687Z,10.40
2019-04-03T11:41:59.130Z,9.65
2019-04-03T11:43:34.830Z,10.63
2019-04-03T11:45:11.204Z,10.35
2019-04-03T11:46:46.728Z,12.03
2019-04-03T11:48:22.367Z,10.38
2019-04-03T11:49:57.782Z,11.28
2019-04-03T11:51:33.956Z,11.10
2019-04-03T11:53:09.580Z,10.28
2019-04-03T11:54:45.046Z,10.38
2019-04-03T11:56:20.680Z,10.95
2019-04-03T11:57:56.178Z,11.25
2019-04-03T11:59:31.702Z,11.28
2019-04-03T12:01:07.953Z,10.72
2019-04-03T12:02:44.554Z,11.12
2019-04-03T12:04:20.309Z,11.60
2019-04-03T12:05:55.896Z,11.60
2019-04-03T12:07:31.098Z,12.15
2019-04-03T12:09:08.239Z,10.80
2019-04-03T12:10:43.347Z,11.07
2019-04-03T12:12:18.816Z,11.08
2019-04-03T12:13:54.024Z,11.53
2019-04-03T12:15:29.185Z,11.33
2019-04-03T12:17:04.549Z,11.18
2019-04-03T12:18:40.000Z,11.90
2019-04-03T12:20:18.307Z,11.00
2019-04-03T12:21:53.484Z,11.20
2019-04-03T12:23:29.037Z,12.15
2019-04-03T12:25:05.983Z,12.30
2019-04-03T12:26:43.566Z,13.08
2019-04-03T12:28:18.980Z,11.95
2019-04-03T12:29:55.648Z,11.63
2019-04-03T12:31:32.918Z,11.95
2019-04-03T12:33:08.457Z,11.63
2019-04-03T12:34:43.986Z,11.30
2019-04-03T12:36:19.518Z,11.40
2019-04-03T12:37:55.054Z,12.83
2019-04-03T12:39:30.843Z,12.55
2019-04-03T12:41:06.573Z,12.05
2019-04-03T12:42:42.212Z,11.40
2019-04-03T12:44:19.270Z,11.60
2019-04-03T12:45:57.393Z,12.53
2019-04-03T12:47:31.891Z,12.30
2019-04-03T12:49:08.785Z,12.00
2019-04-03T12:50:44.632Z,12.25
2019-04-03T12:52:21.290Z,12.98
2019-04-03T12:53:56.815Z,12.25
2019-04-03T12:55:32.366Z,12.13
2019-04-03T12:57:08.896Z,13.35
2019-04-03T12:58:44.162Z,11.73
2019-04-03T13:00:22.710Z,10.88
2019-04-03T13:01:58.389Z,12.07
2019-04-03T13:03:36.415Z,11.97
2019-04-03T13:05:11.164Z,11.68
2019-04-03T13:06:47.284Z,10.82
2019-04-03T13:08:22.414Z,11.45
2019-04-03T13:09:57.946Z,12.77
2019-04-03T13:11:33.959Z,12.80
2019-04-03T13:13:09.694Z,12.45
2019-04-03T13:14:45.292Z,12.78
2019-04-03T13:16:21.924Z,11.93
2019-04-03T13:17:57.797Z,11.75
2019-04-03T13:19:33.336Z,12.07
2019-04-03T13:21:09.981Z,12.28
2019-04-03T13:22:45.182Z,12.78
2019-04-03T13:24:20.288Z,10.68
2019-04-03T13:25:56.294Z,10.72
2019-04-03T13:27:32.728Z,11.48
2019-04-03T13:29:09.146Z,11.73
2019-04-03T13:30:44.904Z,11.94
2019-04-03T13:32:22.096Z,11.68
2019-04-03T13:33:58.191Z,11.08
2019-04-03T13:35:33.313Z,11.33
2019-04-03T13:37:09.135Z,12.95
2019-04-03T13:38:44.668Z,10.68
2019-04-03T13:40:19.936Z,11.95
2019-04-03T13:41:55.169Z,12.30
2019-04-03T13:43:30.476Z,11.68
2019-04-03T13:45:12.596Z,11.25
2019-04-03T13:46:48.144Z,11.10
2019-04-03T13:48:23.317Z,11.30
2019-04-03T13:49:58.548Z,11.97
2019-04-03T13:51:34.284Z,10.72
2019-04-03T13:53:09.458Z,10.72
2019-04-03T13:54:45.379Z,11.30
2019-04-03T13:56:23.196Z,10.20
2019-04-03T13:57:58.362Z,11.20
2019-04-03T13:59:33.819Z,11.90
2019-04-03T14:01:09.995Z,10.70
2019-04-03T14:02:46.771Z,10.48
2019-04-03T14:04:23.553Z,11.20
2019-04-03T14:05:59.544Z,10.70
2019-04-03T14:07:35.273Z,10.13
2019-04-03T14:09:12.018Z,9.68
2019-04-03T14:10:47.306Z,9.85
2019-04-03T14:12:22.726Z,10.23
2019-04-03T14:13:57.899Z,10.43
2019-04-03T14:15:33.355Z,9.78
2019-04-03T14:17:08.893Z,10.53
2019-04-03T14:18:44.412Z,10.20
2019-04-03T14:20:22.999Z,10.28
2019-04-03T14:21:59.977Z,10.58
2019-04-03T14:23:35.167Z,10.25
2019-04-03T14:25:19.851Z,10.00
2019-04-03T14:26:48.534Z,10.30
2019-04-03T14:28:23.618Z,10.47
2019-04-03T14:29:59.800Z,10.73
2019-04-03T14:31:37.495Z,9.85
2019-04-03T14:33:13.578Z,9.98
2019-04-03T14:34:49.268Z,10.80
2019-04-03T14:36:27.175Z,9.43
2019-04-03T14:38:02.106Z,9.73
2019-04-03T14:39:40.191Z,9.68
2019-04-03T14:41:17.340Z,10.10
2019-04-03T14:42:51.755Z,10.43
2019-04-03T14:44:28.235Z,8.90
2019-04-03T14:46:04.013Z,10.13
2019-04-03T14:47:39.695Z,10.72
2019-04-03T14:49:16.711Z,10.45
2019-04-03T14:50:52.262Z,11.27
2019-04-03T14:52:27.817Z,9.98
2019-04-03T14:54:03.321Z,9.97
2019-04-03T14:55:47.066Z,9.40
2019-04-03T14:57:22.536Z,10.23
2019-04-03T14:58:53.725Z,9.43
2019-04-03T15:00:31.264Z,9.53
2019-04-03T15:02:06.941Z,9.48
2019-04-03T15:03:42.571Z,10.15
2019-04-03T15:05:18.653Z,10.00
2019-04-03T15:07:02.158Z,9.45
2019-04-03T15:08:31.584Z,9.65
2019-04-03T15:10:07.720Z,9.93
2019-04-03T15:11:43.252Z,9.68
2019-04-03T15:13:19.064Z,9.33
2019-04-03T15:14:55.608Z,9.03
2019-04-03T15:16:32.289Z,8.83
2019-04-03T15:18:10.053Z,9.55
2019-04-03T15:19:46.585Z,9.53
2019-04-03T15:21:23.699Z,9.48
2019-04-03T15:22:59.757Z,9.20
2019-04-03T15:24:35.336Z,8.75
2019-04-03T15:26:10.855Z,9.35
2019-04-03T15:27:47.155Z,9.80
2019-04-03T15:29:23.014Z,9.08
2019-04-03T15:31:00.886Z,8.55
2019-04-03T15:32:36.505Z,9.15
2019-04-03T15:34:12.032Z,8.83
2019-04-03T15:35:47.557Z,8.93
2019-04-03T15:37:24.225Z,9.25
2019-04-03T15:38:59.950Z,9.13
2019-04-03T15:40:35.557Z,9.05
2019-04-03T15:42:11.110Z,9.45
2019-04-03T15:43:50.746Z,9.10
2019-04-03T15:45:25.486Z,9.00
2019-04-03T15:47:02.239Z,9.03
2019-04-03T15:48:39.956Z,8.48
2019-04-03T15:50:16.881Z,9.53
2019-04-03T15:51:52.568Z,9.28
2019-04-03T15:53:28.202Z,8.75
2019-04-03T15:55:06.418Z,8.55
2019-04-03T15:56:44.525Z,8.48
2019-04-03T15:58:19.569Z,8.93
2019-04-03T15:59:55.091Z,9.25
2019-04-03T16:01:31.064Z,8.80
2019-04-03T16:03:06.730Z,9.05
2019-04-03T16:04:43.090Z,9.20
2019-04-03T16:06:18.939Z,8.75
2019-04-03T16:07:54.555Z,9.30
2019-04-03T16:09:30.080Z,9.23
2019-04-03T16:11:05.970Z,9.58
2019-04-03T16:12:43.138Z,8.68
2019-04-03T16:14:20.423Z,8.83
2019-04-03T16:15:59.721Z,9.63
2019-04-03T16:17:34.167Z,8.65
2019-04-03T16:19:11.370Z,8.88
2019-04-03T16:20:49.086Z,9.50
2019-04-03T16:22:24.857Z,9.03
2019-04-03T16:24:00.656Z,8.80
2019-04-03T16:25:36.204Z,9.05
2019-04-03T16:27:12.043Z,8.88
2019-04-03T16:28:47.567Z,9.08
2019-04-03T16:30:23.177Z,10.00
2019-04-03T16:31:58.706Z,9.18
2019-04-03T16:33:35.794Z,9.05
2019-04-03T16:35:13.752Z,8.68
2019-04-03T16:36:50.255Z,8.90
2019-04-03T16:38:28.482Z,9.55
2019-04-03T16:40:05.011Z,8.67
2019-04-03T16:41:43.091Z,8.98
2019-04-03T16:43:17.983Z,9.20
2019-04-03T16:44:54.614Z,9.38
2019-04-03T16:46:30.233Z,9.40
2019-04-03T16:48:06.564Z,9.07
2019-04-03T16:49:42.136Z,9.65
2019-04-03T16:51:18.171Z,8.53
2019-04-03T16:52:54.843Z,8.62
2019-04-03T16:54:31.962Z,9.68
2019-04-03T16:56:07.603Z,9.13
2019-04-03T16:57:43.135Z,9.20
2019-04-03T16:59:19.020Z,9.58
2019-04-03T17:00:55.187Z,10.04
2019-04-03T17:02:30.743Z,9.08
2019-04-03T17:04:08.828Z,9.25
2019-04-03T17:05:44.551Z,9.88
2019-04-03T17:07:22.216Z,9.80
2019-04-03T17:08:58.647Z,9.55
2019-04-03T17:10:35.547Z,9.60
2019-04-03T17:12:11.153Z,8.95
2019-04-03T17:13:46.676Z,9.55
2019-04-03T17:15:22.355Z,10.13
2019-04-03T17:16:57.861Z,9.55
2019-04-03T17:18:33.473Z,8.70
2019-04-03T17:20:09.568Z,9.63
2019-04-03T17:21:45.056Z,9.95
2019-04-03T17:23:20.578Z,9.18
2019-04-03T17:24:56.526Z,9.70
2019-04-03T17:26:32.181Z,9.78
2019-04-03T17:28:09.995Z,9.55
2019-04-03T17:29:46.668Z,9.48
2019-04-03T17:31:23.523Z,10.00
2019-04-03T17:33:02.050Z,9.83
2019-04-03T17:34:37.704Z,10.32
2019-04-03T17:36:15.422Z,9.88
2019-04-03T17:37:50.947Z,10.58
2019-04-03T17:39:26.653Z,9.90
2019-04-03T17:41:02.179Z,9.93
2019-04-03T17:42:39.491Z,9.98
2019-04-03T17:44:14.923Z,9.80
2019-04-03T17:45:50.454Z,9.75
2019-04-03T17:47:27.014Z,9.98
2019-04-03T17:49:02.535Z,11.00
2019-04-03T17:50:38.403Z,10.88
2019-04-03T17:52:13.929Z,10.10
2019-04-03T17:53:49.458Z,10.85
2019-04-03T17:55:24.986Z,11.10
2019-04-03T17:57:00.532Z,11.20
2019-04-03T17:58:36.075Z,11.05
2019-04-03T18:00:15.650Z,11.30
2019-04-03T18:01:52.478Z,10.45
2019-04-03T18:03:28.582Z,11.35
2019-04-03T18:05:06.517Z,10.40
2019-04-03T18:06:42.048Z,10.40
2019-04-03T18:08:17.590Z,10.80
2019-04-03T18:09:53.120Z,10.75
2019-04-03T18:11:28.717Z,10.82
2019-04-03T18:13:04.334Z,11.60
2019-04-03T18:14:39.884Z,12.20
2019-04-03T18:16:15.751Z,11.53
2019-04-03T18:17:51.289Z,11.48
2019-04-03T18:19:36.825Z,10.82
2019-04-03T18:21:04.064Z,11.63
2019-04-03T18:22:39.603Z,12.03
2019-04-03T18:24:16.250Z,11.45
2019-04-03T18:25:51.766Z,11.80
2019-04-03T18:27:27.292Z,11.33
2019-04-03T18:29:03.129Z,11.03
2019-04-03T18:30:38.648Z,11.10
2019-04-03T18:32:15.449Z,10.77
2019-04-03T18:33:51.596Z,11.68
2019-04-03T18:35:27.115Z,11.93
2019-04-03T18:37:04.034Z,11.45
2019-04-03T18:38:39.981Z,11.97
2019-04-03T18:40:15.648Z,10.82
2019-04-03T18:41:51.219Z,11.18
2019-04-03T18:43:26.789Z,11.90
2019-04-03T18:45:02.332Z,10.68
2019-04-03T18:46:38.104Z,12.20
2019-04-03T18:48:16.308Z,11.45
2019-04-03T18:49:50.867Z,11.40
2019-04-03T18:51:26.396Z,10.78
2019-04-03T18:53:02.246Z,11.40
2019-04-03T18:54:37.777Z,11.35
2019-04-03T18:56:15.615Z,10.72
2019-04-03T18:57:52.970Z,11.80
2019-04-03T18:59:28.494Z,10.80
2019-04-03T19:01:04.081Z,11.30
2019-04-03T19:02:39.612Z,11.65
2019-04-03T19:04:15.974Z,11.35
2019-04-03T19:05:52.473Z,11.20
2019-04-03T19:07:28.009Z,10.93
2019-04-03T19:09:10.078Z,11.50
2019-04-03T19:10:42.403Z,11.00
2019-04-03T19:12:18.185Z,11.10
2019-04-03T19:13:53.729Z,11.80
2019-04-03T19:15:29.524Z,11.83
2019-04-03T19:17:05.316Z,11.43
2019-04-03T19:18:40.851Z,11.48
2019-04-03T19:20:16.642Z,11.22
2019-04-03T19:21:54.352Z,10.87
2019-04-03T19:23:29.365Z,11.03
2019-04-03T19:25:09.613Z,10.83
2019-04-03T19:26:45.140Z,10.98
2019-04-03T19:28:20.738Z,11.30
2019-04-03T19:29:56.264Z,11.00
2019-04-03T19:31:32.132Z,11.47
2019-04-03T19:33:07.945Z,10.45
2019-04-03T19:34:43.993Z,10.78
2019-04-03T19:36:20.331Z,11.53
2019-04-03T19:37:56.139Z,11.60
2019-04-03T19:39:32.381Z,11.30
2019-04-03T19:41:07.927Z,11.75
2019-04-03T19:42:44.358Z,10.75
2019-04-03T19:44:20.043Z,11.25
2019-04-03T19:45:55.550Z,11.67
2019-04-03T19:47:31.371Z,11.77
2019-04-03T19:49:06.946Z,11.43
2019-04-03T19:50:42.468Z,11.75
2019-04-03T19:52:17.992Z,11.35
2019-04-03T19:53:59.680Z,11.40
2019-04-03T19:55:32.969Z,11.40
2019-04-03T19:57:08.501Z,11.63
2019-04-03T19:58:44.044Z,10.80
2019-04-03T20:00:20.914Z,11.28
2019-04-03T20:01:56.431Z,11.43
2019-04-03T20:03:33.574Z,11.47
2019-04-03T20:05:09.535Z,11.50
2019-04-03T20:06:45.141Z,11.97
2019-04-03T20:08:20.682Z,10.65
2019-04-03T20:09:56.268Z,11.80
2019-04-03T20:11:31.795Z,11.97
2019-04-03T20:13:08.793Z,11.47
2019-04-03T20:14:57.440Z,11.08
2019-04-03T20:16:24.286Z,10.72
2019-04-03T20:17:59.222Z,11.27
2019-04-03T20:19:35.064Z,10.83
2019-04-03T20:21:10.597Z,12.15
2019-04-03T20:22:46.118Z,11.40
2019-04-03T20:24:21.651Z,11.97
2019-04-03T20:25:57.539Z,11.90
2019-04-03T20:27:33.114Z,11.93
2019-04-03T20:29:08.678Z,11.90
2019-04-03T20:30:44.235Z,11.10
2019-04-03T20:32:19.761Z,11.22
2019-04-03T20:33:55.639Z,11.50
2019-04-03T20:35:31.163Z,10.60
2019-04-03T20:37:06.693Z,11.43
2019-04-03T20:38:42.220Z,11.10
2019-04-03T20:40:17.765Z,10.93
2019-04-03T20:41:53.286Z,11.03
2019-04-03T20:43:28.831Z,11.40
2019-04-03T20:45:06.961Z,11.93
2019-04-03T20:46:42.493Z,10.53
2019-04-03T20:48:18.030Z,11.57
2019-04-03T20:49:53.561Z,10.98
2019-04-03T20:51:29.098Z,10.80